sensor_id;sensor_type;location;lat;lon;timestamp;P1;durP1;ratioP1;P2;durP2;ratioP2
16994;SDS011;8614;48.522;9.206;2023-06-14T00:02:25;7.77;;;4.70;;
16994;SDS011;8614;48.522;9.206;2023-06-14T00:04:51;6.40;;;4.93;;
16994;SDS011;8614;48.522;9.206;2023-06-14T00:07:20;6.40;;;4.60;;
16994;SDS011;8614;48.522;9.206;2023-06-14T00:10:00;5.87;;;4.20;;
16994;SDS011;8614;48.522;9.206;2023-06-14T00:12:27;7.37;;;4.50;;
16994;SDS011;8614;48.522;9.206;2023-06-14T00:14:54;7.43;;;4.60;;
16994;SDS011;8614;48.522;9.206;2023-06-14T00:17:21;7.17;;;4.20;;
16994;SDS011;8614;48.522;9.206;2023-06-14T00:19:48;5.70;;;4.50;;
16994;SDS011;8614;48.522;9.206;2023-06-14T00:22:15;5.43;;;4.03;;
16994;SDS011;8614;48.522;9.206;2023-06-14T00:24:42;5.20;;;4.07;;
16994;SDS011;8614;48.522;9.206;2023-06-14T00:27:10;7.37;;;4.40;;
16994;SDS011;8614;48.522;9.206;2023-06-14T00:29:37;6.33;;;4.60;;
16994;SDS011;8614;48.522;9.206;2023-06-14T00:32:04;7.57;;;4.53;;
16994;SDS011;8614;48.522;9.206;2023-06-14T00:34:31;7.37;;;4.63;;
16994;SDS011;8614;48.522;9.206;2023-06-14T00:36:58;8.07;;;4.83;;
16994;SDS011;8614;48.522;9.206;2023-06-14T00:39:25;7.67;;;4.53;;
16994;SDS011;8614;48.522;9.206;2023-06-14T00:41:52;7.77;;;4.90;;
16994;SDS011;8614;48.522;9.206;2023-06-14T00:44:20;7.77;;;5.03;;
16994;SDS011;8614;48.522;9.206;2023-06-14T00:46:47;8.53;;;4.97;;
16994;SDS011;8614;48.522;9.206;2023-06-14T00:49:14;6.07;;;4.57;;
16994;SDS011;8614;48.522;9.206;2023-06-14T00:51:43;5.23;;;4.07;;
16994;SDS011;8614;48.522;9.206;2023-06-14T00:54:10;8.23;;;4.37;;
16994;SDS011;8614;48.522;9.206;2023-06-14T00:56:37;5.90;;;4.20;;
16994;SDS011;8614;48.522;9.206;2023-06-14T00:59:05;6.83;;;4.13;;
16994;SDS011;8614;48.522;9.206;2023-06-14T01:01:33;6.67;;;4.67;;
16994;SDS011;8614;48.522;9.206;2023-06-14T01:04:00;6.13;;;4.70;;
16994;SDS011;8614;48.522;9.206;2023-06-14T01:06:30;7.47;;;4.53;;
16994;SDS011;8614;48.522;9.206;2023-06-14T01:09:03;5.27;;;4.30;;
16994;SDS011;8614;48.522;9.206;2023-06-14T01:11:38;6.77;;;4.40;;
16994;SDS011;8614;48.522;9.206;2023-06-14T01:14:12;7.00;;;4.80;;
16994;SDS011;8614;48.522;9.206;2023-06-14T01:16:41;7.60;;;5.00;;
16994;SDS011;8614;48.522;9.206;2023-06-14T01:19:09;6.53;;;4.63;;
16994;SDS011;8614;48.522;9.206;2023-06-14T01:21:39;5.43;;;4.30;;
16994;SDS011;8614;48.522;9.206;2023-06-14T01:24:09;6.97;;;4.60;;
16994;SDS011;8614;48.522;9.206;2023-06-14T01:26:36;7.60;;;4.53;;
16994;SDS011;8614;48.522;9.206;2023-06-14T01:29:04;6.47;;;4.47;;
16994;SDS011;8614;48.522;9.206;2023-06-14T01:31:32;6.40;;;4.40;;
16994;SDS011;8614;48.522;9.206;2023-06-14T01:34:06;6.97;;;4.57;;
16994;SDS011;8614;48.522;9.206;2023-06-14T01:36:34;6.87;;;4.90;;
16994;SDS011;8614;48.522;9.206;2023-06-14T01:39:03;7.70;;;4.70;;
16994;SDS011;8614;48.522;9.206;2023-06-14T01:41:33;6.47;;;4.07;;
16994;SDS011;8614;48.522;9.206;2023-06-14T01:44:00;4.83;;;3.87;;
16994;SDS011;8614;48.522;9.206;2023-06-14T01:46:28;6.03;;;4.57;;
16994;SDS011;8614;48.522;9.206;2023-06-14T01:48:54;7.80;;;4.70;;
16994;SDS011;8614;48.522;9.206;2023-06-14T01:51:21;7.03;;;4.47;;
16994;SDS011;8614;48.522;9.206;2023-06-14T01:53:48;7.47;;;4.80;;
16994;SDS011;8614;48.522;9.206;2023-06-14T01:56:15;9.53;;;5.30;;
16994;SDS011;8614;48.522;9.206;2023-06-14T01:58:43;7.30;;;5.07;;
16994;SDS011;8614;48.522;9.206;2023-06-14T02:01:10;9.00;;;5.20;;
16994;SDS011;8614;48.522;9.206;2023-06-14T02:03:37;7.00;;;5.47;;
16994;SDS011;8614;48.522;9.206;2023-06-14T02:06:04;7.33;;;5.00;;
16994;SDS011;8614;48.522;9.206;2023-06-14T02:08:32;7.33;;;5.00;;
16994;SDS011;8614;48.522;9.206;2023-06-14T02:10:59;8.33;;;5.43;;
16994;SDS011;8614;48.522;9.206;2023-06-14T02:13:26;7.03;;;5.03;;
16994;SDS011;8614;48.522;9.206;2023-06-14T02:15:55;8.83;;;5.00;;
16994;SDS011;8614;48.522;9.206;2023-06-14T02:18:22;6.97;;;4.93;;
16994;SDS011;8614;48.522;9.206;2023-06-14T02:20:49;7.30;;;4.87;;
16994;SDS011;8614;48.522;9.206;2023-06-14T02:23:16;6.80;;;5.03;;
16994;SDS011;8614;48.522;9.206;2023-06-14T02:25:43;6.33;;;4.60;;
16994;SDS011;8614;48.522;9.206;2023-06-14T02:28:11;8.83;;;5.47;;
16994;SDS011;8614;48.522;9.206;2023-06-14T02:30:38;6.07;;;4.80;;
16994;SDS011;8614;48.522;9.206;2023-06-14T02:33:07;6.93;;;5.47;;
16994;SDS011;8614;48.522;9.206;2023-06-14T02:35:39;7.83;;;5.40;;
16994;SDS011;8614;48.522;9.206;2023-06-14T02:38:06;9.17;;;5.57;;
16994;SDS011;8614;48.522;9.206;2023-06-14T02:40:32;8.27;;;5.00;;
16994;SDS011;8614;48.522;9.206;2023-06-14T02:42:59;8.07;;;5.50;;
16994;SDS011;8614;48.522;9.206;2023-06-14T02:45:27;8.10;;;5.00;;
16994;SDS011;8614;48.522;9.206;2023-06-14T02:47:53;7.13;;;5.27;;
16994;SDS011;8614;48.522;9.206;2023-06-14T02:50:22;8.93;;;5.80;;
16994;SDS011;8614;48.522;9.206;2023-06-14T02:52:49;8.13;;;5.60;;
16994;SDS011;8614;48.522;9.206;2023-06-14T02:55:15;6.90;;;5.53;;
16994;SDS011;8614;48.522;9.206;2023-06-14T02:57:43;9.40;;;5.67;;
16994;SDS011;8614;48.522;9.206;2023-06-14T03:00:10;9.17;;;6.43;;
16994;SDS011;8614;48.522;9.206;2023-06-14T03:02:38;7.17;;;5.97;;
16994;SDS011;8614;48.522;9.206;2023-06-14T03:05:06;7.50;;;6.50;;
16994;SDS011;8614;48.522;9.206;2023-06-14T03:07:35;7.60;;;6.00;;
16994;SDS011;8614;48.522;9.206;2023-06-14T03:10:07;7.10;;;6.00;;
16994;SDS011;8614;48.522;9.206;2023-06-14T03:12:35;7.43;;;5.90;;
16994;SDS011;8614;48.522;9.206;2023-06-14T03:15:03;7.50;;;6.03;;
16994;SDS011;8614;48.522;9.206;2023-06-14T03:17:35;7.60;;;6.10;;
16994;SDS011;8614;48.522;9.206;2023-06-14T03:20:05;9.93;;;6.60;;
16994;SDS011;8614;48.522;9.206;2023-06-14T03:22:33;9.93;;;6.83;;
16994;SDS011;8614;48.522;9.206;2023-06-14T03:25:01;9.90;;;6.80;;
16994;SDS011;8614;48.522;9.206;2023-06-14T03:27:32;8.10;;;5.90;;
16994;SDS011;8614;48.522;9.206;2023-06-14T03:30:01;7.30;;;6.00;;
16994;SDS011;8614;48.522;9.206;2023-06-14T03:32:29;7.00;;;5.70;;
16994;SDS011;8614;48.522;9.206;2023-06-14T03:34:58;6.37;;;5.73;;
16994;SDS011;8614;48.522;9.206;2023-06-14T03:37:25;7.13;;;5.70;;
16994;SDS011;8614;48.522;9.206;2023-06-14T03:39:52;6.97;;;6.20;;
16994;SDS011;8614;48.522;9.206;2023-06-14T03:42:23;6.90;;;5.80;;
16994;SDS011;8614;48.522;9.206;2023-06-14T03:44:50;6.70;;;6.00;;
16994;SDS011;8614;48.522;9.206;2023-06-14T03:47:19;7.17;;;5.43;;
16994;SDS011;8614;48.522;9.206;2023-06-14T03:49:46;6.53;;;5.87;;
16994;SDS011;8614;48.522;9.206;2023-06-14T03:52:13;5.90;;;5.30;;
16994;SDS011;8614;48.522;9.206;2023-06-14T03:54:43;9.07;;;6.23;;
16994;SDS011;8614;48.522;9.206;2023-06-14T03:57:12;5.70;;;5.10;;
16994;SDS011;8614;48.522;9.206;2023-06-14T03:59:41;7.30;;;5.47;;
16994;SDS011;8614;48.522;9.206;2023-06-14T04:02:08;7.70;;;5.20;;
16994;SDS011;8614;48.522;9.206;2023-06-14T04:04:35;6.90;;;4.83;;
16994;SDS011;8614;48.522;9.206;2023-06-14T04:07:04;6.27;;;4.73;;
16994;SDS011;8614;48.522;9.206;2023-06-14T04:09:33;5.87;;;4.83;;
16994;SDS011;8614;48.522;9.206;2023-06-14T04:12:01;6.10;;;4.67;;
16994;SDS011;8614;48.522;9.206;2023-06-14T04:14:31;5.77;;;4.73;;
16994;SDS011;8614;48.522;9.206;2023-06-14T04:17:00;5.57;;;4.30;;
16994;SDS011;8614;48.522;9.206;2023-06-14T04:19:27;4.77;;;4.17;;
16994;SDS011;8614;48.522;9.206;2023-06-14T04:21:55;5.07;;;4.13;;
16994;SDS011;8614;48.522;9.206;2023-06-14T04:24:22;4.13;;;3.73;;
16994;SDS011;8614;48.522;9.206;2023-06-14T04:26:53;4.20;;;3.80;;
16994;SDS011;8614;48.522;9.206;2023-06-14T04:29:24;5.60;;;3.80;;
16994;SDS011;8614;48.522;9.206;2023-06-14T04:32:00;4.07;;;3.60;;
16994;SDS011;8614;48.522;9.206;2023-06-14T04:34:28;4.37;;;3.63;;
16994;SDS011;8614;48.522;9.206;2023-06-14T04:36:57;4.37;;;3.60;;
16994;SDS011;8614;48.522;9.206;2023-06-14T04:39:39;5.97;;;4.00;;
16994;SDS011;8614;48.522;9.206;2023-06-14T04:42:07;5.63;;;4.13;;
16994;SDS011;8614;48.522;9.206;2023-06-14T04:44:37;5.90;;;4.23;;
16994;SDS011;8614;48.522;9.206;2023-06-14T04:47:06;8.77;;;4.73;;
16994;SDS011;8614;48.522;9.206;2023-06-14T04:49:34;4.77;;;3.93;;
16994;SDS011;8614;48.522;9.206;2023-06-14T04:52:01;5.77;;;3.93;;
16994;SDS011;8614;48.522;9.206;2023-06-14T04:54:33;6.10;;;4.40;;
16994;SDS011;8614;48.522;9.206;2023-06-14T04:57:02;6.30;;;4.33;;
16994;SDS011;8614;48.522;9.206;2023-06-14T04:59:31;4.87;;;4.17;;
16994;SDS011;8614;48.522;9.206;2023-06-14T05:01:59;7.07;;;4.50;;
16994;SDS011;8614;48.522;9.206;2023-06-14T05:04:27;5.67;;;4.67;;
16994;SDS011;8614;48.522;9.206;2023-06-14T05:06:57;4.27;;;3.77;;
16994;SDS011;8614;48.522;9.206;2023-06-14T05:09:24;4.83;;;3.83;;
16994;SDS011;8614;48.522;9.206;2023-06-14T05:11:51;5.50;;;4.47;;
16994;SDS011;8614;48.522;9.206;2023-06-14T05:14:19;5.33;;;3.90;;
16994;SDS011;8614;48.522;9.206;2023-06-14T05:16:48;6.57;;;4.50;;
16994;SDS011;8614;48.522;9.206;2023-06-14T05:19:15;5.10;;;4.03;;
16994;SDS011;8614;48.522;9.206;2023-06-14T05:21:44;6.60;;;4.17;;
16994;SDS011;8614;48.522;9.206;2023-06-14T05:24:12;5.87;;;4.00;;
16994;SDS011;8614;48.522;9.206;2023-06-14T05:26:39;5.13;;;4.33;;
16994;SDS011;8614;48.522;9.206;2023-06-14T05:29:06;4.67;;;3.90;;
16994;SDS011;8614;48.522;9.206;2023-06-14T05:31:33;4.40;;;3.87;;
16994;SDS011;8614;48.522;9.206;2023-06-14T05:33:59;5.97;;;4.30;;
16994;SDS011;8614;48.522;9.206;2023-06-14T05:36:26;5.87;;;4.50;;
16994;SDS011;8614;48.522;9.206;2023-06-14T05:38:54;5.03;;;4.20;;
16994;SDS011;8614;48.522;9.206;2023-06-14T05:41:23;5.50;;;3.97;;
16994;SDS011;8614;48.522;9.206;2023-06-14T05:43:50;6.30;;;3.97;;
16994;SDS011;8614;48.522;9.206;2023-06-14T05:46:17;5.50;;;4.40;;
16994;SDS011;8614;48.522;9.206;2023-06-14T05:48:47;6.43;;;4.20;;
16994;SDS011;8614;48.522;9.206;2023-06-14T05:51:14;5.30;;;4.47;;
16994;SDS011;8614;48.522;9.206;2023-06-14T05:53:44;4.87;;;4.00;;
16994;SDS011;8614;48.522;9.206;2023-06-14T05:56:12;5.50;;;4.20;;
16994;SDS011;8614;48.522;9.206;2023-06-14T05:58:39;8.57;;;4.13;;
16994;SDS011;8614;48.522;9.206;2023-06-14T06:01:06;6.77;;;4.20;;
16994;SDS011;8614;48.522;9.206;2023-06-14T06:03:33;5.00;;;4.07;;
16994;SDS011;8614;48.522;9.206;2023-06-14T06:06:00;3.87;;;3.40;;
16994;SDS011;8614;48.522;9.206;2023-06-14T06:08:28;5.53;;;4.30;;
16994;SDS011;8614;48.522;9.206;2023-06-14T06:10:55;4.97;;;4.47;;
16994;SDS011;8614;48.522;9.206;2023-06-14T06:13:23;5.20;;;4.17;;
16994;SDS011;8614;48.522;9.206;2023-06-14T06:15:50;6.13;;;5.00;;
16994;SDS011;8614;48.522;9.206;2023-06-14T06:18:17;5.90;;;3.87;;
16994;SDS011;8614;48.522;9.206;2023-06-14T06:20:43;6.00;;;4.40;;
16994;SDS011;8614;48.522;9.206;2023-06-14T06:23:12;8.37;;;4.57;;
16994;SDS011;8614;48.522;9.206;2023-06-14T06:25:39;5.40;;;4.30;;
16994;SDS011;8614;48.522;9.206;2023-06-14T06:28:06;5.20;;;4.00;;
16994;SDS011;8614;48.522;9.206;2023-06-14T06:30:34;5.57;;;4.27;;
16994;SDS011;8614;48.522;9.206;2023-06-14T06:33:02;4.90;;;4.23;;
16994;SDS011;8614;48.522;9.206;2023-06-14T06:35:29;6.80;;;5.17;;
16994;SDS011;8614;48.522;9.206;2023-06-14T06:37:58;7.80;;;4.93;;
16994;SDS011;8614;48.522;9.206;2023-06-14T06:40:25;5.53;;;4.03;;
16994;SDS011;8614;48.522;9.206;2023-06-14T06:42:52;6.90;;;4.47;;
16994;SDS011;8614;48.522;9.206;2023-06-14T06:45:19;6.03;;;4.53;;
16994;SDS011;8614;48.522;9.206;2023-06-14T06:47:49;7.60;;;5.17;;
16994;SDS011;8614;48.522;9.206;2023-06-14T06:50:17;8.17;;;4.37;;
16994;SDS011;8614;48.522;9.206;2023-06-14T06:52:44;5.40;;;4.90;;
16994;SDS011;8614;48.522;9.206;2023-06-14T06:55:11;5.63;;;4.23;;
16994;SDS011;8614;48.522;9.206;2023-06-14T06:57:38;4.27;;;3.87;;
16994;SDS011;8614;48.522;9.206;2023-06-14T07:00:05;5.77;;;4.17;;
16994;SDS011;8614;48.522;9.206;2023-06-14T07:02:34;5.57;;;4.70;;
16994;SDS011;8614;48.522;9.206;2023-06-14T07:05:03;10.93;;;4.87;;
16994;SDS011;8614;48.522;9.206;2023-06-14T07:07:30;5.67;;;4.07;;
16994;SDS011;8614;48.522;9.206;2023-06-14T07:09:57;6.67;;;4.40;;
16994;SDS011;8614;48.522;9.206;2023-06-14T07:12:25;6.33;;;4.37;;
16994;SDS011;8614;48.522;9.206;2023-06-14T07:14:52;7.20;;;4.47;;
16994;SDS011;8614;48.522;9.206;2023-06-14T07:17:19;5.93;;;4.37;;
16994;SDS011;8614;48.522;9.206;2023-06-14T07:19:46;6.70;;;3.93;;
16994;SDS011;8614;48.522;9.206;2023-06-14T07:22:16;6.23;;;4.50;;
16994;SDS011;8614;48.522;9.206;2023-06-14T07:24:42;6.13;;;4.30;;
16994;SDS011;8614;48.522;9.206;2023-06-14T07:27:09;6.57;;;4.33;;
16994;SDS011;8614;48.522;9.206;2023-06-14T07:29:38;4.87;;;3.77;;
16994;SDS011;8614;48.522;9.206;2023-06-14T07:32:05;6.40;;;4.67;;
16994;SDS011;8614;48.522;9.206;2023-06-14T07:34:33;6.80;;;5.03;;
16994;SDS011;8614;48.522;9.206;2023-06-14T07:36:59;6.17;;;4.90;;
16994;SDS011;8614;48.522;9.206;2023-06-14T07:39:31;6.03;;;4.90;;
16994;SDS011;8614;48.522;9.206;2023-06-14T07:41:58;5.20;;;4.20;;
16994;SDS011;8614;48.522;9.206;2023-06-14T07:44:27;6.50;;;4.47;;
16994;SDS011;8614;48.522;9.206;2023-06-14T07:46:56;8.43;;;5.10;;
16994;SDS011;8614;48.522;9.206;2023-06-14T07:49:23;5.50;;;4.20;;
16994;SDS011;8614;48.522;9.206;2023-06-14T07:51:50;6.63;;;4.50;;
16994;SDS011;8614;48.522;9.206;2023-06-14T07:54:17;7.40;;;4.33;;
16994;SDS011;8614;48.522;9.206;2023-06-14T07:56:51;5.57;;;4.20;;
16994;SDS011;8614;48.522;9.206;2023-06-14T07:59:18;5.93;;;4.83;;
16994;SDS011;8614;48.522;9.206;2023-06-14T08:01:47;7.53;;;4.80;;
16994;SDS011;8614;48.522;9.206;2023-06-14T08:04:14;6.47;;;4.17;;
16994;SDS011;8614;48.522;9.206;2023-06-14T08:06:41;6.20;;;4.20;;
16994;SDS011;8614;48.522;9.206;2023-06-14T08:09:24;6.47;;;4.37;;
16994;SDS011;8614;48.522;9.206;2023-06-14T08:11:53;4.53;;;3.90;;
16994;SDS011;8614;48.522;9.206;2023-06-14T08:14:20;4.60;;;3.80;;
16994;SDS011;8614;48.522;9.206;2023-06-14T08:16:47;4.20;;;3.80;;
16994;SDS011;8614;48.522;9.206;2023-06-14T08:19:14;7.87;;;4.07;;
16994;SDS011;8614;48.522;9.206;2023-06-14T08:21:42;5.47;;;4.23;;
16994;SDS011;8614;48.522;9.206;2023-06-14T08:24:08;6.53;;;4.63;;
16994;SDS011;8614;48.522;9.206;2023-06-14T08:26:37;6.23;;;3.90;;
16994;SDS011;8614;48.522;9.206;2023-06-14T08:29:05;9.97;;;5.03;;
16994;SDS011;8614;48.522;9.206;2023-06-14T08:31:33;7.67;;;4.70;;
16994;SDS011;8614;48.522;9.206;2023-06-14T08:34:00;9.40;;;5.10;;
16994;SDS011;8614;48.522;9.206;2023-06-14T08:36:26;6.10;;;4.50;;
16994;SDS011;8614;48.522;9.206;2023-06-14T08:38:53;4.90;;;3.90;;
16994;SDS011;8614;48.522;9.206;2023-06-14T08:41:21;4.40;;;3.73;;
16994;SDS011;8614;48.522;9.206;2023-06-14T08:43:49;6.80;;;4.13;;
16994;SDS011;8614;48.522;9.206;2023-06-14T08:46:18;5.67;;;4.00;;
16994;SDS011;8614;48.522;9.206;2023-06-14T08:48:46;9.67;;;4.53;;
16994;SDS011;8614;48.522;9.206;2023-06-14T08:51:14;9.13;;;4.33;;
16994;SDS011;8614;48.522;9.206;2023-06-14T08:53:44;6.23;;;4.17;;
16994;SDS011;8614;48.522;9.206;2023-06-14T08:56:12;5.40;;;4.00;;
16994;SDS011;8614;48.522;9.206;2023-06-14T08:58:40;4.73;;;4.00;;
16994;SDS011;8614;48.522;9.206;2023-06-14T09:01:10;6.57;;;3.50;;
16994;SDS011;8614;48.522;9.206;2023-06-14T09:03:41;8.10;;;4.53;;
16994;SDS011;8614;48.522;9.206;2023-06-14T09:06:08;6.10;;;4.27;;
16994;SDS011;8614;48.522;9.206;2023-06-14T09:08:39;5.63;;;3.67;;
16994;SDS011;8614;48.522;9.206;2023-06-14T09:11:06;5.40;;;4.00;;
16994;SDS011;8614;48.522;9.206;2023-06-14T09:13:34;7.00;;;4.37;;
16994;SDS011;8614;48.522;9.206;2023-06-14T09:16:01;4.83;;;3.90;;
16994;SDS011;8614;48.522;9.206;2023-06-14T09:18:33;5.70;;;3.90;;
16994;SDS011;8614;48.522;9.206;2023-06-14T09:21:02;6.43;;;3.93;;
16994;SDS011;8614;48.522;9.206;2023-06-14T09:23:29;6.93;;;4.47;;
16994;SDS011;8614;48.522;9.206;2023-06-14T09:25:59;5.23;;;4.10;;
16994;SDS011;8614;48.522;9.206;2023-06-14T09:28:26;7.03;;;4.70;;
16994;SDS011;8614;48.522;9.206;2023-06-14T09:30:54;6.70;;;4.97;;
16994;SDS011;8614;48.522;9.206;2023-06-14T09:33:20;4.87;;;4.10;;
16994;SDS011;8614;48.522;9.206;2023-06-14T09:35:50;5.03;;;3.93;;
16994;SDS011;8614;48.522;9.206;2023-06-14T09:38:18;7.63;;;5.13;;
16994;SDS011;8614;48.522;9.206;2023-06-14T09:40:45;9.80;;;5.23;;
16994;SDS011;8614;48.522;9.206;2023-06-14T09:43:12;5.57;;;4.63;;
16994;SDS011;8614;48.522;9.206;2023-06-14T09:45:39;7.93;;;5.33;;
16994;SDS011;8614;48.522;9.206;2023-06-14T09:48:10;5.90;;;4.90;;
16994;SDS011;8614;48.522;9.206;2023-06-14T09:50:42;4.87;;;3.90;;
16994;SDS011;8614;48.522;9.206;2023-06-14T09:53:11;4.30;;;3.70;;
16994;SDS011;8614;48.522;9.206;2023-06-14T09:55:40;4.80;;;3.90;;
16994;SDS011;8614;48.522;9.206;2023-06-14T09:58:07;5.90;;;4.03;;
16994;SDS011;8614;48.522;9.206;2023-06-14T10:00:37;5.43;;;3.70;;
16994;SDS011;8614;48.522;9.206;2023-06-14T10:03:06;6.97;;;3.87;;
16994;SDS011;8614;48.522;9.206;2023-06-14T10:05:41;4.13;;;3.53;;
16994;SDS011;8614;48.522;9.206;2023-06-14T10:08:10;4.33;;;3.33;;
16994;SDS011;8614;48.522;9.206;2023-06-14T10:10:42;4.40;;;3.53;;
16994;SDS011;8614;48.522;9.206;2023-06-14T10:13:09;5.93;;;4.00;;
16994;SDS011;8614;48.522;9.206;2023-06-14T10:15:38;5.03;;;3.80;;
16994;SDS011;8614;48.522;9.206;2023-06-14T10:18:19;4.73;;;3.90;;
16994;SDS011;8614;48.522;9.206;2023-06-14T10:20:53;4.63;;;3.63;;
16994;SDS011;8614;48.522;9.206;2023-06-14T10:23:26;6.40;;;4.20;;
16994;SDS011;8614;48.522;9.206;2023-06-14T10:25:57;8.47;;;3.77;;
16994;SDS011;8614;48.522;9.206;2023-06-14T10:28:25;3.70;;;3.40;;
16994;SDS011;8614;48.522;9.206;2023-06-14T10:31:01;4.90;;;3.93;;
16994;SDS011;8614;48.522;9.206;2023-06-14T10:33:32;5.47;;;3.90;;
16994;SDS011;8614;48.522;9.206;2023-06-14T10:39:00;6.40;;;4.10;;
16994;SDS011;8614;48.522;9.206;2023-06-14T10:41:32;5.47;;;3.90;;
16994;SDS011;8614;48.522;9.206;2023-06-14T10:44:17;4.63;;;3.80;;
16994;SDS011;8614;48.522;9.206;2023-06-14T10:46:59;5.33;;;3.80;;
16994;SDS011;8614;48.522;9.206;2023-06-14T10:49:39;4.33;;;3.57;;
16994;SDS011;8614;48.522;9.206;2023-06-14T10:52:08;4.20;;;3.53;;
16994;SDS011;8614;48.522;9.206;2023-06-14T10:54:58;4.47;;;3.43;;
16994;SDS011;8614;48.522;9.206;2023-06-14T10:57:27;5.90;;;3.90;;
16994;SDS011;8614;48.522;9.206;2023-06-14T10:59:56;5.97;;;3.50;;
16994;SDS011;8614;48.522;9.206;2023-06-14T11:02:48;5.53;;;3.70;;
16994;SDS011;8614;48.522;9.206;2023-06-14T11:05:41;5.70;;;3.63;;
16994;SDS011;8614;48.522;9.206;2023-06-14T11:08:17;3.97;;;3.47;;
16994;SDS011;8614;48.522;9.206;2023-06-14T11:11:00;5.80;;;3.93;;
16994;SDS011;8614;48.522;9.206;2023-06-14T11:13:33;4.00;;;3.60;;
16994;SDS011;8614;48.522;9.206;2023-06-14T11:16:02;5.53;;;3.87;;
16994;SDS011;8614;48.522;9.206;2023-06-14T11:18:36;5.80;;;3.43;;
16994;SDS011;8614;48.522;9.206;2023-06-14T11:21:03;5.03;;;3.23;;
16994;SDS011;8614;48.522;9.206;2023-06-14T11:23:30;5.70;;;4.10;;
16994;SDS011;8614;48.522;9.206;2023-06-14T11:25:57;5.37;;;3.60;;
16994;SDS011;8614;48.522;9.206;2023-06-14T11:28:23;3.73;;;3.33;;
16994;SDS011;8614;48.522;9.206;2023-06-14T11:31:00;5.37;;;3.73;;
16994;SDS011;8614;48.522;9.206;2023-06-14T11:33:27;4.87;;;3.80;;
16994;SDS011;8614;48.522;9.206;2023-06-14T11:35:54;8.10;;;4.30;;
16994;SDS011;8614;48.522;9.206;2023-06-14T11:38:21;8.90;;;4.20;;
16994;SDS011;8614;48.522;9.206;2023-06-14T11:40:48;4.50;;;4.10;;
16994;SDS011;8614;48.522;9.206;2023-06-14T11:43:14;5.20;;;4.67;;
16994;SDS011;8614;48.522;9.206;2023-06-14T11:45:42;5.30;;;4.03;;
16994;SDS011;8614;48.522;9.206;2023-06-14T11:48:10;5.40;;;3.97;;
16994;SDS011;8614;48.522;9.206;2023-06-14T11:50:40;5.17;;;3.77;;
16994;SDS011;8614;48.522;9.206;2023-06-14T11:53:07;5.27;;;4.30;;
16994;SDS011;8614;48.522;9.206;2023-06-14T11:55:36;5.33;;;4.07;;
16994;SDS011;8614;48.522;9.206;2023-06-14T11:58:03;4.90;;;3.70;;
16994;SDS011;8614;48.522;9.206;2023-06-14T12:00:30;6.40;;;4.07;;
16994;SDS011;8614;48.522;9.206;2023-06-14T12:02:57;4.10;;;3.63;;
16994;SDS011;8614;48.522;9.206;2023-06-14T12:05:26;4.80;;;4.23;;
16994;SDS011;8614;48.522;9.206;2023-06-14T12:07:57;4.23;;;3.83;;
16994;SDS011;8614;48.522;9.206;2023-06-14T12:10:25;6.13;;;3.87;;
16994;SDS011;8614;48.522;9.206;2023-06-14T12:12:56;5.80;;;3.90;;
16994;SDS011;8614;48.522;9.206;2023-06-14T12:15:23;5.37;;;4.03;;
16994;SDS011;8614;48.522;9.206;2023-06-14T12:17:50;6.27;;;4.43;;
16994;SDS011;8614;48.522;9.206;2023-06-14T12:20:17;6.90;;;4.47;;
16994;SDS011;8614;48.522;9.206;2023-06-14T12:22:51;4.87;;;4.30;;
16994;SDS011;8614;48.522;9.206;2023-06-14T12:25:26;4.97;;;4.00;;
16994;SDS011;8614;48.522;9.206;2023-06-14T12:27:56;4.90;;;4.20;;
16994;SDS011;8614;48.522;9.206;2023-06-14T12:30:23;4.60;;;4.10;;
16994;SDS011;8614;48.522;9.206;2023-06-14T12:32:50;4.90;;;4.17;;
16994;SDS011;8614;48.522;9.206;2023-06-14T12:35:17;6.10;;;4.10;;
16994;SDS011;8614;48.522;9.206;2023-06-14T12:37:45;6.17;;;4.13;;
16994;SDS011;8614;48.522;9.206;2023-06-14T12:40:13;4.83;;;4.30;;
16994;SDS011;8614;48.522;9.206;2023-06-14T12:42:40;5.00;;;4.07;;
16994;SDS011;8614;48.522;9.206;2023-06-14T12:45:07;7.10;;;4.10;;
16994;SDS011;8614;48.522;9.206;2023-06-14T12:47:34;4.87;;;3.83;;
16994;SDS011;8614;48.522;9.206;2023-06-14T12:50:02;5.07;;;4.33;;
16994;SDS011;8614;48.522;9.206;2023-06-14T12:52:29;7.90;;;4.60;;
16994;SDS011;8614;48.522;9.206;2023-06-14T12:54:56;5.13;;;4.50;;
16994;SDS011;8614;48.522;9.206;2023-06-14T12:57:24;4.27;;;3.87;;
16994;SDS011;8614;48.522;9.206;2023-06-14T12:59:50;4.80;;;4.10;;
16994;SDS011;8614;48.522;9.206;2023-06-14T13:02:18;5.80;;;4.07;;
16994;SDS011;8614;48.522;9.206;2023-06-14T13:04:47;5.90;;;4.27;;
16994;SDS011;8614;48.522;9.206;2023-06-14T13:07:14;5.63;;;4.60;;
16994;SDS011;8614;48.522;9.206;2023-06-14T13:09:41;4.40;;;4.00;;
16994;SDS011;8614;48.522;9.206;2023-06-14T13:12:09;6.50;;;3.97;;
16994;SDS011;8614;48.522;9.206;2023-06-14T13:14:39;6.07;;;4.33;;
16994;SDS011;8614;48.522;9.206;2023-06-14T13:17:07;4.57;;;4.13;;
16994;SDS011;8614;48.522;9.206;2023-06-14T13:19:35;4.70;;;4.20;;
16994;SDS011;8614;48.522;9.206;2023-06-14T13:22:02;5.07;;;4.10;;
16994;SDS011;8614;48.522;9.206;2023-06-14T13:24:29;4.90;;;4.33;;
16994;SDS011;8614;48.522;9.206;2023-06-14T13:26:56;7.60;;;4.10;;
16994;SDS011;8614;48.522;9.206;2023-06-14T13:29:23;8.33;;;4.23;;
16994;SDS011;8614;48.522;9.206;2023-06-14T13:31:51;4.80;;;4.07;;
16994;SDS011;8614;48.522;9.206;2023-06-14T13:34:18;5.80;;;4.03;;
16994;SDS011;8614;48.522;9.206;2023-06-14T13:36:46;4.67;;;4.17;;
16994;SDS011;8614;48.522;9.206;2023-06-14T13:39:12;4.47;;;3.87;;
16994;SDS011;8614;48.522;9.206;2023-06-14T13:41:39;4.87;;;4.20;;
16994;SDS011;8614;48.522;9.206;2023-06-14T13:44:06;6.97;;;4.70;;
16994;SDS011;8614;48.522;9.206;2023-06-14T13:46:33;5.80;;;4.17;;
16994;SDS011;8614;48.522;9.206;2023-06-14T13:49:02;6.30;;;4.20;;
16994;SDS011;8614;48.522;9.206;2023-06-14T13:51:30;6.03;;;4.20;;
16994;SDS011;8614;48.522;9.206;2023-06-14T13:53:58;7.47;;;4.80;;
16994;SDS011;8614;48.522;9.206;2023-06-14T13:56:25;4.47;;;3.90;;
16994;SDS011;8614;48.522;9.206;2023-06-14T13:58:52;7.40;;;4.50;;
16994;SDS011;8614;48.522;9.206;2023-06-14T14:01:19;5.60;;;4.60;;
16994;SDS011;8614;48.522;9.206;2023-06-14T14:03:46;4.80;;;4.20;;
16994;SDS011;8614;48.522;9.206;2023-06-14T14:06:14;5.13;;;4.30;;
16994;SDS011;8614;48.522;9.206;2023-06-14T14:08:41;6.33;;;4.20;;
16994;SDS011;8614;48.522;9.206;2023-06-14T14:11:08;4.90;;;4.00;;
16994;SDS011;8614;48.522;9.206;2023-06-14T14:13:35;6.30;;;4.10;;
16994;SDS011;8614;48.522;9.206;2023-06-14T14:16:03;5.23;;;4.33;;
16994;SDS011;8614;48.522;9.206;2023-06-14T14:18:31;6.27;;;4.50;;
16994;SDS011;8614;48.522;9.206;2023-06-14T14:20:58;5.80;;;4.20;;
16994;SDS011;8614;48.522;9.206;2023-06-14T14:23:27;5.13;;;4.63;;
16994;SDS011;8614;48.522;9.206;2023-06-14T14:25:54;4.17;;;3.77;;
16994;SDS011;8614;48.522;9.206;2023-06-14T14:28:21;5.70;;;3.67;;
16994;SDS011;8614;48.522;9.206;2023-06-14T14:30:47;6.70;;;4.50;;
16994;SDS011;8614;48.522;9.206;2023-06-14T14:33:14;4.77;;;4.00;;
16994;SDS011;8614;48.522;9.206;2023-06-14T14:35:42;4.50;;;4.00;;
16994;SDS011;8614;48.522;9.206;2023-06-14T14:38:10;5.67;;;4.17;;
16994;SDS011;8614;48.522;9.206;2023-06-14T14:40:39;4.40;;;3.70;;
16994;SDS011;8614;48.522;9.206;2023-06-14T14:43:07;3.90;;;3.50;;
16994;SDS011;8614;48.522;9.206;2023-06-14T14:45:33;4.10;;;3.70;;
16994;SDS011;8614;48.522;9.206;2023-06-14T14:48:00;6.03;;;3.73;;
16994;SDS011;8614;48.522;9.206;2023-06-14T14:50:28;8.47;;;4.30;;
16994;SDS011;8614;48.522;9.206;2023-06-14T14:52:55;6.80;;;4.00;;
16994;SDS011;8614;48.522;9.206;2023-06-14T14:55:22;3.97;;;3.57;;
16994;SDS011;8614;48.522;9.206;2023-06-14T14:57:50;13.90;;;4.33;;
16994;SDS011;8614;48.522;9.206;2023-06-14T15:00:17;3.90;;;3.50;;
16994;SDS011;8614;48.522;9.206;2023-06-14T15:02:45;6.10;;;3.83;;
16994;SDS011;8614;48.522;9.206;2023-06-14T15:05:11;5.47;;;3.50;;
16994;SDS011;8614;48.522;9.206;2023-06-14T15:07:38;6.10;;;3.87;;
16994;SDS011;8614;48.522;9.206;2023-06-14T15:10:06;5.93;;;4.07;;
16994;SDS011;8614;48.522;9.206;2023-06-14T15:12:33;4.30;;;3.87;;